sensor_id;sensor_type;location;lat;lon;timestamp;temperature;humidity
40253;DHT22;25972;51.854;4.534;2023-04-29T00:00:00;9.80;99.90
40253;DHT22;25972;51.854;4.534;2023-04-29T00:02:26;9.80;99.90
40253;DHT22;25972;51.854;4.534;2023-04-29T00:04:53;9.80;99.90
40253;DHT22;25972;51.854;4.534;2023-04-29T00:07:19;9.80;99.90
40253;DHT22;25972;51.854;4.534;2023-04-29T00:09:44;9.80;99.90
40253;DHT22;25972;51.854;4.534;2023-04-29T00:12:10;9.80;99.90
40253;DHT22;25972;51.854;4.534;2023-04-29T00:14:36;9.80;99.90
40253;DHT22;25972;51.854;4.534;2023-04-29T00:17:02;9.80;99.90
40253;DHT22;25972;51.854;4.534;2023-04-29T00:19:28;9.80;99.90
40253;DHT22;25972;51.854;4.534;2023-04-29T00:21:54;9.80;99.90
40253;DHT22;25972;51.854;4.534;2023-04-29T00:24:20;9.80;99.90
40253;DHT22;25972;51.854;4.534;2023-04-29T00:26:46;9.80;99.90
40253;DHT22;25972;51.854;4.534;2023-04-29T00:29:11;9.80;99.90
40253;DHT22;25972;51.854;4.534;2023-04-29T00:31:37;9.80;99.90
40253;DHT22;25972;51.854;4.534;2023-04-29T00:34:03;9.80;99.90
40253;DHT22;25972;51.854;4.534;2023-04-29T00:36:29;9.80;99.90
40253;DHT22;25972;51.854;4.534;2023-04-29T00:38:57;9.80;99.90
40253;DHT22;25972;51.854;4.534;2023-04-29T00:41:24;9.80;99.90
40253;DHT22;25972;51.854;4.534;2023-04-29T00:43:50;9.80;99.90
40253;DHT22;25972;51.854;4.534;2023-04-29T00:46:17;9.80;99.90
40253;DHT22;25972;51.854;4.534;2023-04-29T00:48:43;9.70;99.90
40253;DHT22;25972;51.854;4.534;2023-04-29T00:51:09;9.70;99.90
40253;DHT22;25972;51.854;4.534;2023-04-29T00:53:35;9.70;99.90
40253;DHT22;25972;51.854;4.534;2023-04-29T00:56:02;9.70;99.90
40253;DHT22;25972;51.854;4.534;2023-04-29T00:58:31;9.70;99.90
40253;DHT22;25972;51.854;4.534;2023-04-29T01:01:03;9.70;99.90
40253;DHT22;25972;51.854;4.534;2023-04-29T01:03:29;9.70;99.90
40253;DHT22;25972;51.854;4.534;2023-04-29T01:08:33;9.60;99.90
40253;DHT22;25972;51.854;4.534;2023-04-29T01:11:07;9.60;99.90
40253;DHT22;25972;51.854;4.534;2023-04-29T01:16:16;9.60;99.90
40253;DHT22;25972;51.854;4.534;2023-04-29T01:18:53;9.50;99.90
40253;DHT22;25972;51.854;4.534;2023-04-29T01:21:24;9.50;99.90
40253;DHT22;25972;51.854;4.534;2023-04-29T01:23:50;9.50;99.90
40253;DHT22;25972;51.854;4.534;2023-04-29T01:26:22;9.50;99.90
40253;DHT22;25972;51.854;4.534;2023-04-29T01:29:34;9.50;99.90
40253;DHT22;25972;51.854;4.534;2023-04-29T01:32:10;9.50;99.90
40253;DHT22;25972;51.854;4.534;2023-04-29T01:34:46;9.50;99.90
40253;DHT22;25972;51.854;4.534;2023-04-29T01:38:15;9.50;99.90
40253;DHT22;25972;51.854;4.534;2023-04-29T01:40:47;9.50;99.90
40253;DHT22;25972;51.854;4.534;2023-04-29T01:43:24;9.50;99.90
40253;DHT22;25972;51.854;4.534;2023-04-29T01:45:52;9.50;99.90
40253;DHT22;25972;51.854;4.534;2023-04-29T01:48:20;9.50;99.90
40253;DHT22;25972;51.854;4.534;2023-04-29T01:50:47;9.50;99.90
40253;DHT22;25972;51.854;4.534;2023-04-29T01:53:15;9.40;99.90
40253;DHT22;25972;51.854;4.534;2023-04-29T01:55:41;9.50;99.90
40253;DHT22;25972;51.854;4.534;2023-04-29T01:58:15;9.50;99.90
40253;DHT22;25972;51.854;4.534;2023-04-29T02:00:46;9.50;99.90
40253;DHT22;25972;51.854;4.534;2023-04-29T02:03:12;9.40;99.90
40253;DHT22;25972;51.854;4.534;2023-04-29T02:05:41;9.50;99.90
40253;DHT22;25972;51.854;4.534;2023-04-29T02:08:07;9.50;99.90
40253;DHT22;25972;51.854;4.534;2023-04-29T02:10:37;9.50;99.90
40253;DHT22;25972;51.854;4.534;2023-04-29T02:13:14;9.40;99.90
40253;DHT22;25972;51.854;4.534;2023-04-29T02:15:40;9.40;99.90
40253;DHT22;25972;51.854;4.534;2023-04-29T02:18:07;9.40;99.90
40253;DHT22;25972;51.854;4.534;2023-04-29T02:20:32;9.50;99.90
40253;DHT22;25972;51.854;4.534;2023-04-29T02:22:58;9.50;99.90
40253;DHT22;25972;51.854;4.534;2023-04-29T02:25:24;9.50;99.90
40253;DHT22;25972;51.854;4.534;2023-04-29T02:27:50;9.50;99.90
40253;DHT22;25972;51.854;4.534;2023-04-29T02:30:16;9.50;99.90
40253;DHT22;25972;51.854;4.534;2023-04-29T02:32:42;9.50;99.90
40253;DHT22;25972;51.854;4.534;2023-04-29T02:35:08;9.50;99.90
40253;DHT22;25972;51.854;4.534;2023-04-29T02:37:34;9.50;99.90
40253;DHT22;25972;51.854;4.534;2023-04-29T02:40:01;9.50;99.90
40253;DHT22;25972;51.854;4.534;2023-04-29T02:42:29;9.50;99.90
40253;DHT22;25972;51.854;4.534;2023-04-29T02:44:55;9.50;99.90
40253;DHT22;25972;51.854;4.534;2023-04-29T02:47:21;9.50;99.90
40253;DHT22;25972;51.854;4.534;2023-04-29T02:49:47;9.60;99.90
40253;DHT22;25972;51.854;4.534;2023-04-29T02:52:12;9.60;99.90
40253;DHT22;25972;51.854;4.534;2023-04-29T02:54:38;9.60;99.90
40253;DHT22;25972;51.854;4.534;2023-04-29T02:57:04;9.60;99.90
40253;DHT22;25972;51.854;4.534;2023-04-29T02:59:30;9.60;99.90
40253;DHT22;25972;51.854;4.534;2023-04-29T03:01:56;9.60;99.90
40253;DHT22;25972;51.854;4.534;2023-04-29T03:04:22;9.60;99.90
40253;DHT22;25972;51.854;4.534;2023-04-29T03:06:49;9.60;99.90
40253;DHT22;25972;51.854;4.534;2023-04-29T03:09:15;9.60;99.90
40253;DHT22;25972;51.854;4.534;2023-04-29T03:11:44;9.60;99.90
40253;DHT22;25972;51.854;4.534;2023-04-29T03:14:10;9.60;99.90
40253;DHT22;25972;51.854;4.534;2023-04-29T03:16:37;9.60;99.90
40253;DHT22;25972;51.854;4.534;2023-04-29T03:19:03;9.60;99.90
40253;DHT22;25972;51.854;4.534;2023-04-29T03:21:28;9.60;99.90
40253;DHT22;25972;51.854;4.534;2023-04-29T03:23:54;9.60;99.90
40253;DHT22;25972;51.854;4.534;2023-04-29T03:26:27;9.60;99.90
40253;DHT22;25972;51.854;4.534;2023-04-29T03:28:52;9.60;99.90
40253;DHT22;25972;51.854;4.534;2023-04-29T03:31:18;9.60;99.90
40253;DHT22;25972;51.854;4.534;2023-04-29T03:33:46;9.60;99.90
40253;DHT22;25972;51.854;4.534;2023-04-29T03:36:12;9.60;99.90
40253;DHT22;25972;51.854;4.534;2023-04-29T03:38:48;9.60;99.90
40253;DHT22;25972;51.854;4.534;2023-04-29T03:41:14;9.60;99.90
40253;DHT22;25972;51.854;4.534;2023-04-29T03:43:40;9.60;99.90
40253;DHT22;25972;51.854;4.534;2023-04-29T03:46:09;9.60;99.90
40253;DHT22;25972;51.854;4.534;2023-04-29T03:48:35;9.60;99.90
40253;DHT22;25972;51.854;4.534;2023-04-29T03:51:01;9.60;99.90
40253;DHT22;25972;51.854;4.534;2023-04-29T03:53:27;9.60;99.90
40253;DHT22;25972;51.854;4.534;2023-04-29T03:55:54;9.60;99.90
40253;DHT22;25972;51.854;4.534;2023-04-29T03:58:19;9.60;99.90
40253;DHT22;25972;51.854;4.534;2023-04-29T04:00:45;9.70;99.90
40253;DHT22;25972;51.854;4.534;2023-04-29T04:03:17;9.70;99.90
40253;DHT22;25972;51.854;4.534;2023-04-29T04:05:43;9.70;99.90
40253;DHT22;25972;51.854;4.534;2023-04-29T04:08:12;9.60;99.90
40253;DHT22;25972;51.854;4.534;2023-04-29T04:10:54;9.60;99.90
40253;DHT22;25972;51.854;4.534;2023-04-29T04:13:34;9.70;99.90
40253;DHT22;25972;51.854;4.534;2023-04-29T04:16:01;9.60;99.90
40253;DHT22;25972;51.854;4.534;2023-04-29T04:18:29;9.70;99.90
40253;DHT22;25972;51.854;4.534;2023-04-29T04:20:55;9.70;99.90
40253;DHT22;25972;51.854;4.534;2023-04-29T04:23:23;9.70;99.90
40253;DHT22;25972;51.854;4.534;2023-04-29T04:25:50;9.70;99.90
40253;DHT22;25972;51.854;4.534;2023-04-29T04:28:36;9.70;99.90
40253;DHT22;25972;51.854;4.534;2023-04-29T04:31:07;9.70;99.90
40253;DHT22;25972;51.854;4.534;2023-04-29T04:33:34;9.70;99.90
40253;DHT22;25972;51.854;4.534;2023-04-29T04:36:00;9.70;99.90
40253;DHT22;25972;51.854;4.534;2023-04-29T04:38:26;9.70;99.90
40253;DHT22;25972;51.854;4.534;2023-04-29T04:40:52;9.70;99.90
40253;DHT22;25972;51.854;4.534;2023-04-29T04:43:32;9.70;99.90
40253;DHT22;25972;51.854;4.534;2023-04-29T04:45:58;9.70;99.90
40253;DHT22;25972;51.854;4.534;2023-04-29T04:48:24;9.80;99.90
40253;DHT22;25972;51.854;4.534;2023-04-29T04:50:51;9.80;99.90
40253;DHT22;25972;51.854;4.534;2023-04-29T04:53:18;9.70;99.90
40253;DHT22;25972;51.854;4.534;2023-04-29T04:56:00;9.80;99.90
40253;DHT22;25972;51.854;4.534;2023-04-29T04:58:27;9.80;99.90
40253;DHT22;25972;51.854;4.534;2023-04-29T05:00:53;9.80;99.90
40253;DHT22;25972;51.854;4.534;2023-04-29T05:03:19;9.80;99.90
40253;DHT22;25972;51.854;4.534;2023-04-29T05:05:45;9.80;99.90
40253;DHT22;25972;51.854;4.534;2023-04-29T05:08:11;9.80;99.90
40253;DHT22;25972;51.854;4.534;2023-04-29T05:10:41;9.80;99.90
40253;DHT22;25972;51.854;4.534;2023-04-29T05:13:09;9.90;99.90
40253;DHT22;25972;51.854;4.534;2023-04-29T05:15:35;9.90;99.90
40253;DHT22;25972;51.854;4.534;2023-04-29T05:18:03;9.90;99.90
40253;DHT22;25972;51.854;4.534;2023-04-29T05:20:29;9.90;99.90
40253;DHT22;25972;51.854;4.534;2023-04-29T05:22:55;9.90;99.90
40253;DHT22;25972;51.854;4.534;2023-04-29T05:25:22;9.90;99.90
40253;DHT22;25972;51.854;4.534;2023-04-29T05:27:48;10.00;99.90
40253;DHT22;25972;51.854;4.534;2023-04-29T05:30:17;10.00;99.90
40253;DHT22;25972;51.854;4.534;2023-04-29T05:32:44;10.00;99.90
40253;DHT22;25972;51.854;4.534;2023-04-29T05:35:14;10.00;99.90
40253;DHT22;25972;51.854;4.534;2023-04-29T05:37:40;10.00;99.90
40253;DHT22;25972;51.854;4.534;2023-04-29T05:40:25;10.00;99.90
40253;DHT22;25972;51.854;4.534;2023-04-29T05:42:58;10.10;99.90
40253;DHT22;25972;51.854;4.534;2023-04-29T05:45:24;10.10;99.90
40253;DHT22;25972;51.854;4.534;2023-04-29T05:47:50;10.10;99.90
40253;DHT22;25972;51.854;4.534;2023-04-29T05:50:16;10.10;99.90
40253;DHT22;25972;51.854;4.534;2023-04-29T05:52:43;10.10;99.90
40253;DHT22;25972;51.854;4.534;2023-04-29T05:55:09;10.20;99.90
40253;DHT22;25972;51.854;4.534;2023-04-29T05:57:35;10.20;99.90
40253;DHT22;25972;51.854;4.534;2023-04-29T06:00:01;10.20;99.90
40253;DHT22;25972;51.854;4.534;2023-04-29T06:02:39;10.30;99.90
40253;DHT22;25972;51.854;4.534;2023-04-29T06:05:09;10.30;99.90
40253;DHT22;25972;51.854;4.534;2023-04-29T06:07:43;10.30;99.90
40253;DHT22;25972;51.854;4.534;2023-04-29T06:10:30;10.30;99.90
40253;DHT22;25972;51.854;4.534;2023-04-29T06:12:56;10.30;99.90
40253;DHT22;25972;51.854;4.534;2023-04-29T06:15:22;10.40;99.90
40253;DHT22;25972;51.854;4.534;2023-04-29T06:17:48;10.40;99.90
40253;DHT22;25972;51.854;4.534;2023-04-29T06:20:13;10.50;99.90
40253;DHT22;25972;51.854;4.534;2023-04-29T06:22:39;10.50;99.90
40253;DHT22;25972;51.854;4.534;2023-04-29T06:25:05;10.50;99.90
40253;DHT22;25972;51.854;4.534;2023-04-29T06:27:50;10.60;99.90
40253;DHT22;25972;51.854;4.534;2023-04-29T06:30:19;10.60;99.90
40253;DHT22;25972;51.854;4.534;2023-04-29T06:32:45;10.60;99.90
40253;DHT22;25972;51.854;4.534;2023-04-29T06:35:11;10.60;99.90
40253;DHT22;25972;51.854;4.534;2023-04-29T06:37:46;10.70;99.90
40253;DHT22;25972;51.854;4.534;2023-04-29T06:40:47;10.70;99.90
40253;DHT22;25972;51.854;4.534;2023-04-29T06:43:32;10.70;99.90
40253;DHT22;25972;51.854;4.534;2023-04-29T06:46:18;10.80;99.90
40253;DHT22;25972;51.854;4.534;2023-04-29T06:49:04;10.90;99.90
40253;DHT22;25972;51.854;4.534;2023-04-29T06:51:31;10.90;99.90
40253;DHT22;25972;51.854;4.534;2023-04-29T06:53:58;11.10;99.90
40253;DHT22;25972;51.854;4.534;2023-04-29T06:56:24;11.20;99.90
40253;DHT22;25972;51.854;4.534;2023-04-29T06:58:50;11.40;99.90
40253;DHT22;25972;51.854;4.534;2023-04-29T07:01:16;11.60;99.90
40253;DHT22;25972;51.854;4.534;2023-04-29T07:03:42;11.60;99.90
40253;DHT22;25972;51.854;4.534;2023-04-29T07:06:08;11.80;99.90
40253;DHT22;25972;51.854;4.534;2023-04-29T07:08:34;11.90;99.90
40253;DHT22;25972;51.854;4.534;2023-04-29T07:10:59;12.20;99.90
40253;DHT22;25972;51.854;4.534;2023-04-29T07:13:25;12.40;99.90
40253;DHT22;25972;51.854;4.534;2023-04-29T07:15:51;12.60;99.90
40253;DHT22;25972;51.854;4.534;2023-04-29T07:18:17;12.70;99.90
40253;DHT22;25972;51.854;4.534;2023-04-29T07:20:43;12.90;99.90
40253;DHT22;25972;51.854;4.534;2023-04-29T07:23:09;13.10;99.90
40253;DHT22;25972;51.854;4.534;2023-04-29T07:25:35;13.20;99.90
40253;DHT22;25972;51.854;4.534;2023-04-29T07:28:01;13.30;99.90
40253;DHT22;25972;51.854;4.534;2023-04-29T07:30:27;13.40;99.90
40253;DHT22;25972;51.854;4.534;2023-04-29T07:32:53;13.50;99.90
40253;DHT22;25972;51.854;4.534;2023-04-29T07:35:19;13.40;99.90
40253;DHT22;25972;51.854;4.534;2023-04-29T07:37:45;13.50;99.90
40253;DHT22;25972;51.854;4.534;2023-04-29T07:40:11;13.50;99.90
40253;DHT22;25972;51.854;4.534;2023-04-29T07:42:37;13.70;99.90
40253;DHT22;25972;51.854;4.534;2023-04-29T07:45:05;14.00;99.90
40253;DHT22;25972;51.854;4.534;2023-04-29T07:47:32;14.10;99.90
40253;DHT22;25972;51.854;4.534;2023-04-29T07:49:59;14.30;99.90
40253;DHT22;25972;51.854;4.534;2023-04-29T07:52:25;14.20;99.90
40253;DHT22;25972;51.854;4.534;2023-04-29T07:54:52;14.40;99.90
40253;DHT22;25972;51.854;4.534;2023-04-29T07:57:21;14.50;99.90
40253;DHT22;25972;51.854;4.534;2023-04-29T07:59:51;14.80;99.90
40253;DHT22;25972;51.854;4.534;2023-04-29T08:02:17;15.10;99.90
40253;DHT22;25972;51.854;4.534;2023-04-29T08:04:42;15.30;99.90
40253;DHT22;25972;51.854;4.534;2023-04-29T08:07:11;15.30;99.90
40253;DHT22;25972;51.854;4.534;2023-04-29T08:09:37;15.50;99.90
40253;DHT22;25972;51.854;4.534;2023-04-29T08:12:04;15.80;99.90
40253;DHT22;25972;51.854;4.534;2023-04-29T08:14:30;15.80;99.90
40253;DHT22;25972;51.854;4.534;2023-04-29T08:16:56;15.90;99.90
40253;DHT22;25972;51.854;4.534;2023-04-29T08:19:21;15.90;99.90
40253;DHT22;25972;51.854;4.534;2023-04-29T08:21:48;15.80;99.90
40253;DHT22;25972;51.854;4.534;2023-04-29T08:24:14;15.40;94.80
40253;DHT22;25972;51.854;4.534;2023-04-29T08:26:40;15.20;84.40
40253;DHT22;25972;51.854;4.534;2023-04-29T08:29:07;15.30;82.50
40253;DHT22;25972;51.854;4.534;2023-04-29T08:31:33;15.20;85.60
40253;DHT22;25972;51.854;4.534;2023-04-29T08:33:59;15.10;85.60
40253;DHT22;25972;51.854;4.534;2023-04-29T08:36:25;15.20;80.30
40253;DHT22;25972;51.854;4.534;2023-04-29T08:38:53;15.20;79.60
40253;DHT22;25972;51.854;4.534;2023-04-29T08:41:19;15.20;60.00
40253;DHT22;25972;51.854;4.534;2023-04-29T08:43:45;15.00;56.60
40253;DHT22;25972;51.854;4.534;2023-04-29T08:46:11;14.90;47.60
40253;DHT22;25972;51.854;4.534;2023-04-29T08:48:38;14.90;50.40
40253;DHT22;25972;51.854;4.534;2023-04-29T08:51:06;14.80;38.60
40253;DHT22;25972;51.854;4.534;2023-04-29T08:53:32;14.80;44.50
40253;DHT22;25972;51.854;4.534;2023-04-29T08:56:03;14.70;43.80
40253;DHT22;25972;51.854;4.534;2023-04-29T08:58:35;14.50;34.10
40253;DHT22;25972;51.854;4.534;2023-04-29T09:01:07;14.60;36.80
40253;DHT22;25972;51.854;4.534;2023-04-29T09:03:45;14.90;39.10
40253;DHT22;25972;51.854;4.534;2023-04-29T09:06:11;14.90;36.20
40253;DHT22;25972;51.854;4.534;2023-04-29T09:08:38;15.10;37.50
40253;DHT22;25972;51.854;4.534;2023-04-29T09:11:08;15.20;42.50
40253;DHT22;25972;51.854;4.534;2023-04-29T09:13:35;15.20;46.80
40253;DHT22;25972;51.854;4.534;2023-04-29T09:16:00;15.30;42.70
40253;DHT22;25972;51.854;4.534;2023-04-29T09:18:49;15.20;38.40
40253;DHT22;25972;51.854;4.534;2023-04-29T09:23:41;15.70;52.20
40253;DHT22;25972;51.854;4.534;2023-04-29T09:26:07;16.10;54.30
40253;DHT22;25972;51.854;4.534;2023-04-29T09:28:33;16.10;54.60
40253;DHT22;25972;51.854;4.534;2023-04-29T09:31:01;16.10;42.50
40253;DHT22;25972;51.854;4.534;2023-04-29T09:33:31;16.10;36.40
40253;DHT22;25972;51.854;4.534;2023-04-29T09:35:57;16.20;36.70
40253;DHT22;25972;51.854;4.534;2023-04-29T09:38:23;16.10;32.40
40253;DHT22;25972;51.854;4.534;2023-04-29T09:40:49;16.00;32.30
40253;DHT22;25972;51.854;4.534;2023-04-29T09:43:17;16.00;34.30
40253;DHT22;25972;51.854;4.534;2023-04-29T09:45:47;15.90;27.80
40253;DHT22;25972;51.854;4.534;2023-04-29T09:48:14;15.90;25.50
40253;DHT22;25972;51.854;4.534;2023-04-29T09:50:42;16.10;24.50
40253;DHT22;25972;51.854;4.534;2023-04-29T09:53:10;16.30;20.30
40253;DHT22;25972;51.854;4.534;2023-04-29T09:55:37;16.50;16.50
40253;DHT22;25972;51.854;4.534;2023-04-29T09:58:31;16.50;11.50
40253;DHT22;25972;51.854;4.534;2023-04-29T10:01:05;16.20;5.40
40253;DHT22;25972;51.854;4.534;2023-04-29T10:03:35;16.00;6.50
40253;DHT22;25972;51.854;4.534;2023-04-29T10:06:03;16.00;4.20
40253;DHT22;25972;51.854;4.534;2023-04-29T10:08:30;16.20;3.70
40253;DHT22;25972;51.854;4.534;2023-04-29T10:10:59;16.50;4.60
40253;DHT22;25972;51.854;4.534;2023-04-29T10:13:26;16.70;2.50
40253;DHT22;25972;51.854;4.534;2023-04-29T10:16:08;16.80;2.30
40253;DHT22;25972;51.854;4.534;2023-04-29T10:18:36;17.00;1.30
40253;DHT22;25972;51.854;4.534;2023-04-29T10:21:06;16.90;1.00
40253;DHT22;25972;51.854;4.534;2023-04-29T10:23:35;16.80;1.00
40253;DHT22;25972;51.854;4.534;2023-04-29T10:26:01;16.70;1.00
40253;DHT22;25972;51.854;4.534;2023-04-29T10:28:30;16.60;1.00
40253;DHT22;25972;51.854;4.534;2023-04-29T10:31:00;16.50;1.00
40253;DHT22;25972;51.854;4.534;2023-04-29T10:33:30;16.60;1.00
40253;DHT22;25972;51.854;4.534;2023-04-29T10:35:57;16.70;1.00
40253;DHT22;25972;51.854;4.534;2023-04-29T10:38:28;16.80;1.00
40253;DHT22;25972;51.854;4.534;2023-04-29T10:40:57;17.10;1.00
40253;DHT22;25972;51.854;4.534;2023-04-29T10:43:24;17.40;1.00
40253;DHT22;25972;51.854;4.534;2023-04-29T10:46:26;17.40;1.00
40253;DHT22;25972;51.854;4.534;2023-04-29T10:49:00;17.10;1.00
40253;DHT22;25972;51.854;4.534;2023-04-29T10:51:29;17.10;1.00
40253;DHT22;25972;51.854;4.534;2023-04-29T10:56:37;17.50;1.00
40253;DHT22;25972;51.854;4.534;2023-04-29T10:59:03;17.90;1.00
40253;DHT22;25972;51.854;4.534;2023-04-29T11:01:43;17.90;1.00
40253;DHT22;25972;51.854;4.534;2023-04-29T11:04:09;18.10;1.00
40253;DHT22;25972;51.854;4.534;2023-04-29T11:09:18;17.70;1.00
40253;DHT22;25972;51.854;4.534;2023-04-29T11:15:03;17.50;1.00
40253;DHT22;25972;51.854;4.534;2023-04-29T11:17:12;17.40;1.00
40253;DHT22;25972;51.854;4.534;2023-04-29T11:19:46;17.90;1.00
40253;DHT22;25972;51.854;4.534;2023-04-29T11:22:24;18.20;1.00
40253;DHT22;25972;51.854;4.534;2023-04-29T11:27:22;18.50;1.00
40253;DHT22;25972;51.854;4.534;2023-04-29T11:29:54;18.70;1.00
40253;DHT22;25972;51.854;4.534;2023-04-29T11:32:24;18.60;1.00
40253;DHT22;25972;51.854;4.534;2023-04-29T11:34:51;18.30;1.00
40253;DHT22;25972;51.854;4.534;2023-04-29T11:37:25;18.10;1.00
40253;DHT22;25972;51.854;4.534;2023-04-29T11:39:58;18.10;1.00
40253;DHT22;25972;51.854;4.534;2023-04-29T11:42:25;18.00;1.00
40253;DHT22;25972;51.854;4.534;2023-04-29T11:44:55;18.00;1.00
40253;DHT22;25972;51.854;4.534;2023-04-29T11:47:29;18.20;1.00
40253;DHT22;25972;51.854;4.534;2023-04-29T11:50:02;18.30;1.00
40253;DHT22;25972;51.854;4.534;2023-04-29T11:52:28;18.10;1.00
40253;DHT22;25972;51.854;4.534;2023-04-29T11:54:54;18.00;1.00
40253;DHT22;25972;51.854;4.534;2023-04-29T11:57:22;18.00;1.00
40253;DHT22;25972;51.854;4.534;2023-04-29T11:59:48;18.30;1.00
40253;DHT22;25972;51.854;4.534;2023-04-29T12:02:13;18.60;1.00
40253;DHT22;25972;51.854;4.534;2023-04-29T12:04:46;18.80;1.00
40253;DHT22;25972;51.854;4.534;2023-04-29T12:07:15;18.60;1.00
40253;DHT22;25972;51.854;4.534;2023-04-29T12:09:45;18.70;1.00
40253;DHT22;25972;51.854;4.534;2023-04-29T12:12:13;18.80;1.00
40253;DHT22;25972;51.854;4.534;2023-04-29T12:14:39;18.80;1.00
40253;DHT22;25972;51.854;4.534;2023-04-29T12:17:07;19.00;1.00
40253;DHT22;25972;51.854;4.534;2023-04-29T12:19:34;19.10;1.00
40253;DHT22;25972;51.854;4.534;2023-04-29T12:22:03;19.10;1.00
40253;DHT22;25972;51.854;4.534;2023-04-29T12:24:35;19.10;1.00
40253;DHT22;25972;51.854;4.534;2023-04-29T12:27:01;19.00;1.00
40253;DHT22;25972;51.854;4.534;2023-04-29T12:29:27;19.00;1.00
40253;DHT22;25972;51.854;4.534;2023-04-29T12:31:56;18.70;1.00
40253;DHT22;25972;51.854;4.534;2023-04-29T12:34:28;18.70;1.00
40253;DHT22;25972;51.854;4.534;2023-04-29T12:37:03;19.10;1.00
40253;DHT22;25972;51.854;4.534;2023-04-29T12:39:30;19.20;1.00
40253;DHT22;25972;51.854;4.534;2023-04-29T12:42:00;19.20;1.00
40253;DHT22;25972;51.854;4.534;2023-04-29T12:44:35;18.90;1.00
40253;DHT22;25972;51.854;4.534;2023-04-29T12:47:08;18.70;1.00
40253;DHT22;25972;51.854;4.534;2023-04-29T12:49:35;18.50;1.00
40253;DHT22;25972;51.854;4.534;2023-04-29T12:52:02;18.30;1.00
40253;DHT22;25972;51.854;4.534;2023-04-29T12:54:29;18.20;1.00
40253;DHT22;25972;51.854;4.534;2023-04-29T12:56:55;18.30;1.00
40253;DHT22;25972;51.854;4.534;2023-04-29T12:59:21;18.30;1.00
40253;DHT22;25972;51.854;4.534;2023-04-29T13:01:47;18.70;1.00
40253;DHT22;25972;51.854;4.534;2023-04-29T13:04:13;19.00;1.00
40253;DHT22;25972;51.854;4.534;2023-04-29T13:06:39;19.10;1.00
40253;DHT22;25972;51.854;4.534;2023-04-29T13:09:07;19.30;1.00
40253;DHT22;25972;51.854;4.534;2023-04-29T13:11:39;19.50;1.00
40253;DHT22;25972;51.854;4.534;2023-04-29T13:14:05;19.30;1.00
40253;DHT22;25972;51.854;4.534;2023-04-29T13:16:32;19.30;1.00
40253;DHT22;25972;51.854;4.534;2023-04-29T13:18:59;19.30;1.00
40253;DHT22;25972;51.854;4.534;2023-04-29T13:21:25;19.20;1.00
40253;DHT22;25972;51.854;4.534;2023-04-29T13:23:52;19.20;1.00
40253;DHT22;25972;51.854;4.534;2023-04-29T13:26:18;18.90;1.00
40253;DHT22;25972;51.854;4.534;2023-04-29T13:28:44;18.60;1.00
40253;DHT22;25972;51.854;4.534;2023-04-29T13:31:10;18.70;1.00
40253;DHT22;25972;51.854;4.534;2023-04-29T13:33:36;18.70;1.00
40253;DHT22;25972;51.854;4.534;2023-04-29T13:36:02;18.70;1.00
40253;DHT22;25972;51.854;4.534;2023-04-29T13:38:28;18.60;1.00
40253;DHT22;25972;51.854;4.534;2023-04-29T13:40:54;18.90;1.00
40253;DHT22;25972;51.854;4.534;2023-04-29T13:43:20;19.00;1.00
40253;DHT22;25972;51.854;4.534;2023-04-29T13:45:46;19.30;1.00
40253;DHT22;25972;51.854;4.534;2023-04-29T13:48:12;19.20;1.00
40253;DHT22;25972;51.854;4.534;2023-04-29T13:50:38;19.30;1.00
40253;DHT22;25972;51.854;4.534;2023-04-29T13:53:06;19.20;1.00
40253;DHT22;25972;51.854;4.534;2023-04-29T13:55:32;19.10;1.00
40253;DHT22;25972;51.854;4.534;2023-04-29T13:58:00;19.00;1.00
40253;DHT22;25972;51.854;4.534;2023-04-29T14:00:26;18.80;1.00
40253;DHT22;25972;51.854;4.534;2023-04-29T14:02:52;18.80;1.00
40253;DHT22;25972;51.854;4.534;2023-04-29T14:05:18;18.80;1.00
40253;DHT22;25972;51.854;4.534;2023-04-29T14:07:43;18.80;1.00
40253;DHT22;25972;51.854;4.534;2023-04-29T14:10:10;19.00;1.00
40253;DHT22;25972;51.854;4.534;2023-04-29T14:12:36;18.80;1.00
40253;DHT22;25972;51.854;4.534;2023-04-29T14:15:02;18.80;1.00
40253;DHT22;25972;51.854;4.534;2023-04-29T14:17:28;18.90;1.00
40253;DHT22;25972;51.854;4.534;2023-04-29T14:19:54;18.80;1.00
40253;DHT22;25972;51.854;4.534;2023-04-29T14:22:20;19.00;1.00
40253;DHT22;25972;51.854;4.534;2023-04-29T14:24:46;18.80;1.00
40253;DHT22;25972;51.854;4.534;2023-04-29T14:27:12;18.60;1.00
40253;DHT22;25972;51.854;4.534;2023-04-29T14:29:37;18.40;1.00
40253;DHT22;25972;51.854;4.534;2023-04-29T14:32:03;18.30;1.00
40253;DHT22;25972;51.854;4.534;2023-04-29T14:34:32;18.20;1.00
40253;DHT22;25972;51.854;4.534;2023-04-29T14:36:57;18.10;1.00
40253;DHT22;25972;51.854;4.534;2023-04-29T14:39:24;18.00;1.00
40253;DHT22;25972;51.854;4.534;2023-04-29T14:41:52;18.00;1.00
40253;DHT22;25972;51.854;4.534;2023-04-29T14:44:18;18.00;1.00
40253;DHT22;25972;51.854;4.534;2023-04-29T14:46:44;17.90;1.00
40253;DHT22;25972;51.854;4.534;2023-04-29T14:49:10;17.80;1.00
40253;DHT22;25972;51.854;4.534;2023-04-29T14:51:36;17.80;1.00
40253;DHT22;25972;51.854;4.534;2023-04-29T14:54:02;17.80;1.00
40253;DHT22;25972;51.854;4.534;2023-04-29T14:56:28;18.00;1.00
40253;DHT22;25972;51.854;4.534;2023-04-29T14:58:54;18.00;1.00
40253;DHT22;25972;51.854;4.534;2023-04-29T15:01:20;18.00;1.00
40253;DHT22;25972;51.854;4.534;2023-04-29T15:03:46;17.90;1.00
40253;DHT22;25972;51.854;4.534;2023-04-29T15:06:12;17.70;1.00
40253;DHT22;25972;51.854;4.534;2023-04-29T15:08:38;17.60;1.00
40253;DHT22;25972;51.854;4.534;2023-04-29T15:11:04;17.30;1.00
40253;DHT22;25972;51.854;4.534;2023-04-29T15:13:30;17.20;1.00
40253;DHT22;25972;51.854;4.534;2023-04-29T15:15:56;17.00;1.00
40253;DHT22;25972;51.854;4.534;2023-04-29T15:18:21;16.90;1.00
40253;DHT22;25972;51.854;4.534;2023-04-29T15:20:48;16.80;1.00
40253;DHT22;25972;51.854;4.534;2023-04-29T15:23:15;16.70;1.00
40253;DHT22;25972;51.854;4.534;2023-04-29T15:25:41;16.80;1.00
40253;DHT22;25972;51.854;4.534;2023-04-29T15:28:06;17.00;1.00
40253;DHT22;25972;51.854;4.534;2023-04-29T15:30:32;17.10;1.00
40253;DHT22;25972;51.854;4.534;2023-04-29T15:32:58;17.20;1.00
40253;DHT22;25972;51.854;4.534;2023-04-29T15:35:24;17.30;1.00
40253;DHT22;25972;51.854;4.534;2023-04-29T15:37:50;17.20;1.00
40253;DHT22;25972;51.854;4.534;2023-04-29T15:40:16;17.20;1.00
40253;DHT22;25972;51.854;4.534;2023-04-29T15:42:42;17.30;1.00
40253;DHT22;25972;51.854;4.534;2023-04-29T15:45:10;17.40;1.00
40253;DHT22;25972;51.854;4.534;2023-04-29T15:47:36;17.30;1.00
40253;DHT22;25972;51.854;4.534;2023-04-29T15:50:02;17.40;1.00
40253;DHT22;25972;51.854;4.534;2023-04-29T15:52:27;17.40;1.00
40253;DHT22;25972;51.854;4.534;2023-04-29T15:54:53;17.20;1.00
40253;DHT22;25972;51.854;4.534;2023-04-29T15:57:19;17.20;1.00
40253;DHT22;25972;51.854;4.534;2023-04-29T15:59:45;17.20;1.00
40253;DHT22;25972;51.854;4.534;2023-04-29T16:02:11;17.20;1.00
40253;DHT22;25972;51.854;4.534;2023-04-29T16:04:37;17.20;1.00
40253;DHT22;25972;51.854;4.534;2023-04-29T16:07:03;17.30;1.00